sensor_id;sensor_type;location;lat;lon;timestamp;P1;durP1;ratioP1;P2;durP2;ratioP2
14169;SDS011;63889;50.596;8.690;2022-11-14T00:02:18;10.25;;;5.03;;
14169;SDS011;63889;50.596;8.690;2022-11-14T00:04:45;9.02;;;5.13;;
14169;SDS011;63889;50.596;8.690;2022-11-14T00:07:11;8.75;;;4.45;;
14169;SDS011;63889;50.596;8.690;2022-11-14T00:09:37;10.77;;;5.15;;
14169;SDS011;63889;50.596;8.690;2022-11-14T00:12:04;11.77;;;5.13;;
14169;SDS011;63889;50.596;8.690;2022-11-14T00:14:30;9.52;;;5.15;;
14169;SDS011;63889;50.596;8.690;2022-11-14T00:16:56;10.98;;;5.57;;
14169;SDS011;63889;50.596;8.690;2022-11-14T00:19:21;9.02;;;4.82;;
14169;SDS011;63889;50.596;8.690;2022-11-14T00:21:47;10.45;;;5.55;;
14169;SDS011;63889;50.596;8.690;2022-11-14T00:24:12;11.77;;;5.28;;
14169;SDS011;63889;50.596;8.690;2022-11-14T00:26:38;11.13;;;5.63;;
14169;SDS011;63889;50.596;8.690;2022-11-14T00:29:03;12.20;;;5.28;;
14169;SDS011;63889;50.596;8.690;2022-11-14T00:31:29;10.05;;;5.10;;
14169;SDS011;63889;50.596;8.690;2022-11-14T00:33:54;9.20;;;5.07;;
14169;SDS011;63889;50.596;8.690;2022-11-14T00:36:20;11.95;;;5.75;;
14169;SDS011;63889;50.596;8.690;2022-11-14T00:38:46;9.27;;;5.30;;
14169;SDS011;63889;50.596;8.690;2022-11-14T00:41:11;13.10;;;5.43;;
14169;SDS011;63889;50.596;8.690;2022-11-14T00:43:37;8.38;;;4.68;;
14169;SDS011;63889;50.596;8.690;2022-11-14T00:46:02;9.45;;;5.63;;
14169;SDS011;63889;50.596;8.690;2022-11-14T00:48:28;9.93;;;5.35;;
14169;SDS011;63889;50.596;8.690;2022-11-14T00:50:53;12.07;;;5.50;;
14169;SDS011;63889;50.596;8.690;2022-11-14T00:53:19;9.85;;;4.97;;
14169;SDS011;63889;50.596;8.690;2022-11-14T00:55:44;11.20;;;5.47;;
14169;SDS011;63889;50.596;8.690;2022-11-14T00:58:10;9.82;;;5.35;;
14169;SDS011;63889;50.596;8.690;2022-11-14T01:00:35;11.98;;;5.45;;
14169;SDS011;63889;50.596;8.690;2022-11-14T01:03:01;11.60;;;5.88;;
14169;SDS011;63889;50.596;8.690;2022-11-14T01:05:27;10.77;;;5.72;;
14169;SDS011;63889;50.596;8.690;2022-11-14T01:07:52;10.82;;;5.18;;
14169;SDS011;63889;50.596;8.690;2022-11-14T01:10:18;11.60;;;5.90;;
14169;SDS011;63889;50.596;8.690;2022-11-14T01:12:45;11.45;;;6.00;;
14169;SDS011;63889;50.596;8.690;2022-11-14T01:15:10;9.77;;;5.88;;
14169;SDS011;63889;50.596;8.690;2022-11-14T01:17:36;12.68;;;6.22;;
14169;SDS011;63889;50.596;8.690;2022-11-14T01:20:01;12.80;;;5.88;;
14169;SDS011;63889;50.596;8.690;2022-11-14T01:22:28;14.05;;;5.68;;
14169;SDS011;63889;50.596;8.690;2022-11-14T01:24:54;11.27;;;6.10;;
14169;SDS011;63889;50.596;8.690;2022-11-14T01:27:22;14.07;;;6.32;;
14169;SDS011;63889;50.596;8.690;2022-11-14T01:29:48;12.38;;;6.22;;
14169;SDS011;63889;50.596;8.690;2022-11-14T01:32:14;12.13;;;7.18;;
14169;SDS011;63889;50.596;8.690;2022-11-14T01:34:39;11.30;;;6.05;;
14169;SDS011;63889;50.596;8.690;2022-11-14T01:37:05;11.95;;;6.15;;
14169;SDS011;63889;50.596;8.690;2022-11-14T01:39:30;13.85;;;6.75;;
14169;SDS011;63889;50.596;8.690;2022-11-14T01:41:56;14.15;;;6.88;;
14169;SDS011;63889;50.596;8.690;2022-11-14T01:47:12;12.80;;;6.90;;
14169;SDS011;63889;50.596;8.690;2022-11-14T01:49:44;16.83;;;7.82;;
14169;SDS011;63889;50.596;8.690;2022-11-14T01:52:14;12.98;;;6.57;;
14169;SDS011;63889;50.596;8.690;2022-11-14T01:54:46;15.68;;;7.00;;
14169;SDS011;63889;50.596;8.690;2022-11-14T01:57:14;13.85;;;7.80;;
14169;SDS011;63889;50.596;8.690;2022-11-14T01:59:43;17.02;;;7.55;;
14169;SDS011;63889;50.596;8.690;2022-11-14T02:02:15;22.55;;;8.73;;
14169;SDS011;63889;50.596;8.690;2022-11-14T02:04:44;17.63;;;8.35;;
14169;SDS011;63889;50.596;8.690;2022-11-14T02:07:12;13.80;;;7.60;;
14169;SDS011;63889;50.596;8.690;2022-11-14T02:09:41;17.48;;;8.15;;
14169;SDS011;63889;50.596;8.690;2022-11-14T02:12:10;16.05;;;8.82;;
14169;SDS011;63889;50.596;8.690;2022-11-14T02:14:38;19.88;;;8.73;;
14169;SDS011;63889;50.596;8.690;2022-11-14T02:17:05;20.50;;;9.50;;
14169;SDS011;63889;50.596;8.690;2022-11-14T02:22:06;21.10;;;8.93;;
14169;SDS011;63889;50.596;8.690;2022-11-14T02:24:31;16.20;;;7.85;;
14169;SDS011;63889;50.596;8.690;2022-11-14T02:26:57;19.10;;;8.70;;
14169;SDS011;63889;50.596;8.690;2022-11-14T02:29:23;17.20;;;7.68;;
14169;SDS011;63889;50.596;8.690;2022-11-14T02:31:48;17.02;;;7.43;;
14169;SDS011;63889;50.596;8.690;2022-11-14T02:34:14;17.88;;;8.15;;
14169;SDS011;63889;50.596;8.690;2022-11-14T02:36:43;19.30;;;8.38;;
14169;SDS011;63889;50.596;8.690;2022-11-14T02:39:09;16.60;;;8.40;;
14169;SDS011;63889;50.596;8.690;2022-11-14T02:41:34;14.50;;;7.50;;
14169;SDS011;63889;50.596;8.690;2022-11-14T02:44:00;23.02;;;9.18;;
14169;SDS011;63889;50.596;8.690;2022-11-14T02:46:25;17.88;;;8.10;;
14169;SDS011;63889;50.596;8.690;2022-11-14T02:48:51;16.92;;;7.85;;
14169;SDS011;63889;50.596;8.690;2022-11-14T02:51:16;15.98;;;7.75;;
14169;SDS011;63889;50.596;8.690;2022-11-14T02:53:42;15.23;;;7.68;;
14169;SDS011;63889;50.596;8.690;2022-11-14T02:56:07;16.60;;;8.07;;
14169;SDS011;63889;50.596;8.690;2022-11-14T02:58:33;15.02;;;7.85;;
14169;SDS011;63889;50.596;8.690;2022-11-14T03:00:58;16.60;;;8.55;;
14169;SDS011;63889;50.596;8.690;2022-11-14T03:03:24;18.08;;;8.02;;
14169;SDS011;63889;50.596;8.690;2022-11-14T03:05:49;17.17;;;9.10;;
14169;SDS011;63889;50.596;8.690;2022-11-14T03:08:17;16.85;;;7.97;;
14169;SDS011;63889;50.596;8.690;2022-11-14T03:10:43;20.45;;;8.98;;
14169;SDS011;63889;50.596;8.690;2022-11-14T03:13:10;21.02;;;8.85;;
14169;SDS011;63889;50.596;8.690;2022-11-14T03:15:36;19.50;;;9.10;;
14169;SDS011;63889;50.596;8.690;2022-11-14T03:18:01;17.38;;;8.80;;
14169;SDS011;63889;50.596;8.690;2022-11-14T03:20:27;21.60;;;9.57;;
14169;SDS011;63889;50.596;8.690;2022-11-14T03:22:52;17.23;;;8.57;;
14169;SDS011;63889;50.596;8.690;2022-11-14T03:25:18;20.83;;;9.32;;
14169;SDS011;63889;50.596;8.690;2022-11-14T03:27:43;18.75;;;8.75;;
14169;SDS011;63889;50.596;8.690;2022-11-14T03:30:09;19.38;;;9.00;;
14169;SDS011;63889;50.596;8.690;2022-11-14T03:32:35;18.20;;;8.93;;
14169;SDS011;63889;50.596;8.690;2022-11-14T03:35:01;19.27;;;8.75;;
14169;SDS011;63889;50.596;8.690;2022-11-14T03:37:27;20.20;;;9.27;;
14169;SDS011;63889;50.596;8.690;2022-11-14T03:39:52;23.50;;;9.25;;
14169;SDS011;63889;50.596;8.690;2022-11-14T03:42:18;22.42;;;9.05;;
14169;SDS011;63889;50.596;8.690;2022-11-14T03:44:43;21.02;;;9.10;;
14169;SDS011;63889;50.596;8.690;2022-11-14T03:47:09;19.58;;;9.57;;
14169;SDS011;63889;50.596;8.690;2022-11-14T03:49:34;20.85;;;9.52;;
14169;SDS011;63889;50.596;8.690;2022-11-14T03:52:00;22.80;;;9.40;;
14169;SDS011;63889;50.596;8.690;2022-11-14T03:54:25;19.30;;;9.10;;
14169;SDS011;63889;50.596;8.690;2022-11-14T03:56:51;21.98;;;9.93;;
14169;SDS011;63889;50.596;8.690;2022-11-14T03:59:16;23.88;;;10.88;;
14169;SDS011;63889;50.596;8.690;2022-11-14T04:01:42;20.23;;;9.55;;
14169;SDS011;63889;50.596;8.690;2022-11-14T04:04:09;21.83;;;9.25;;
14169;SDS011;63889;50.596;8.690;2022-11-14T04:06:36;21.58;;;10.25;;
14169;SDS011;63889;50.596;8.690;2022-11-14T04:09:02;22.50;;;9.73;;
14169;SDS011;63889;50.596;8.690;2022-11-14T04:11:28;19.95;;;8.75;;
14169;SDS011;63889;50.596;8.690;2022-11-14T04:13:54;19.90;;;8.95;;
14169;SDS011;63889;50.596;8.690;2022-11-14T04:16:19;20.25;;;8.93;;
14169;SDS011;63889;50.596;8.690;2022-11-14T04:18:45;20.52;;;9.07;;
14169;SDS011;63889;50.596;8.690;2022-11-14T04:21:10;23.95;;;9.75;;
14169;SDS011;63889;50.596;8.690;2022-11-14T04:23:36;20.58;;;9.27;;
14169;SDS011;63889;50.596;8.690;2022-11-14T04:26:01;19.52;;;8.82;;
14169;SDS011;63889;50.596;8.690;2022-11-14T04:28:27;21.98;;;9.90;;
14169;SDS011;63889;50.596;8.690;2022-11-14T04:30:52;21.13;;;9.07;;
14169;SDS011;63889;50.596;8.690;2022-11-14T04:33:18;24.02;;;9.82;;
14169;SDS011;63889;50.596;8.690;2022-11-14T04:35:43;22.80;;;10.13;;
14169;SDS011;63889;50.596;8.690;2022-11-14T04:38:09;20.73;;;9.73;;
14169;SDS011;63889;50.596;8.690;2022-11-14T04:40:34;25.33;;;10.20;;
14169;SDS011;63889;50.596;8.690;2022-11-14T04:43:00;26.08;;;10.40;;
14169;SDS011;63889;50.596;8.690;2022-11-14T04:45:26;21.75;;;10.10;;
14169;SDS011;63889;50.596;8.690;2022-11-14T04:47:51;24.65;;;9.98;;
14169;SDS011;63889;50.596;8.690;2022-11-14T04:50:17;22.00;;;10.27;;
14169;SDS011;63889;50.596;8.690;2022-11-14T04:52:42;22.77;;;9.32;;
14169;SDS011;63889;50.596;8.690;2022-11-14T04:55:08;19.58;;;8.93;;
14169;SDS011;63889;50.596;8.690;2022-11-14T04:57:34;21.90;;;10.70;;
14169;SDS011;63889;50.596;8.690;2022-11-14T04:59:59;20.38;;;10.15;;
14169;SDS011;63889;50.596;8.690;2022-11-14T05:02:25;22.77;;;10.05;;
14169;SDS011;63889;50.596;8.690;2022-11-14T05:04:51;23.40;;;9.93;;
14169;SDS011;63889;50.596;8.690;2022-11-14T05:07:16;20.33;;;9.77;;
14169;SDS011;63889;50.596;8.690;2022-11-14T05:09:42;21.10;;;10.10;;
14169;SDS011;63889;50.596;8.690;2022-11-14T05:12:07;25.67;;;10.13;;
14169;SDS011;63889;50.596;8.690;2022-11-14T05:14:33;22.25;;;9.88;;
14169;SDS011;63889;50.596;8.690;2022-11-14T05:16:58;21.15;;;9.57;;
14169;SDS011;63889;50.596;8.690;2022-11-14T05:19:24;20.77;;;9.50;;
14169;SDS011;63889;50.596;8.690;2022-11-14T05:21:50;22.20;;;9.50;;
14169;SDS011;63889;50.596;8.690;2022-11-14T05:24:15;23.80;;;11.00;;
14169;SDS011;63889;50.596;8.690;2022-11-14T05:26:41;21.52;;;9.32;;
14169;SDS011;63889;50.596;8.690;2022-11-14T05:29:06;20.40;;;9.13;;
14169;SDS011;63889;50.596;8.690;2022-11-14T05:31:32;24.17;;;10.43;;
14169;SDS011;63889;50.596;8.690;2022-11-14T05:33:57;22.15;;;10.50;;
14169;SDS011;63889;50.596;8.690;2022-11-14T05:36:23;22.98;;;9.93;;
14169;SDS011;63889;50.596;8.690;2022-11-14T05:38:49;23.50;;;10.38;;
14169;SDS011;63889;50.596;8.690;2022-11-14T05:41:15;24.15;;;10.13;;
14169;SDS011;63889;50.596;8.690;2022-11-14T05:43:43;21.33;;;9.85;;
14169;SDS011;63889;50.596;8.690;2022-11-14T05:46:10;22.67;;;9.40;;
14169;SDS011;63889;50.596;8.690;2022-11-14T05:48:37;17.75;;;9.30;;
14169;SDS011;63889;50.596;8.690;2022-11-14T05:51:04;22.42;;;10.07;;
14169;SDS011;63889;50.596;8.690;2022-11-14T05:53:31;23.65;;;10.27;;
14169;SDS011;63889;50.596;8.690;2022-11-14T05:56:01;18.58;;;8.88;;
14169;SDS011;63889;50.596;8.690;2022-11-14T05:58:29;18.35;;;8.45;;
14169;SDS011;63889;50.596;8.690;2022-11-14T06:01:03;22.38;;;9.70;;
14169;SDS011;63889;50.596;8.690;2022-11-14T06:03:31;22.42;;;10.20;;
14169;SDS011;63889;50.596;8.690;2022-11-14T06:06:02;21.25;;;8.80;;
14169;SDS011;63889;50.596;8.690;2022-11-14T06:08:29;17.80;;;8.23;;
14169;SDS011;63889;50.596;8.690;2022-11-14T06:10:55;16.52;;;8.15;;
14169;SDS011;63889;50.596;8.690;2022-11-14T06:13:22;21.42;;;9.40;;
14169;SDS011;63889;50.596;8.690;2022-11-14T06:15:48;17.38;;;8.18;;
14169;SDS011;63889;50.596;8.690;2022-11-14T06:18:15;20.40;;;8.32;;
14169;SDS011;63889;50.596;8.690;2022-11-14T06:20:40;19.25;;;8.48;;
14169;SDS011;63889;50.596;8.690;2022-11-14T06:23:06;20.40;;;9.73;;
14169;SDS011;63889;50.596;8.690;2022-11-14T06:25:31;19.35;;;9.38;;
14169;SDS011;63889;50.596;8.690;2022-11-14T06:27:57;18.85;;;8.98;;
14169;SDS011;63889;50.596;8.690;2022-11-14T06:30:23;16.60;;;8.38;;
14169;SDS011;63889;50.596;8.690;2022-11-14T06:32:48;18.73;;;8.32;;
14169;SDS011;63889;50.596;8.690;2022-11-14T06:35:14;20.42;;;9.50;;
14169;SDS011;63889;50.596;8.690;2022-11-14T06:37:39;18.92;;;8.55;;
14169;SDS011;63889;50.596;8.690;2022-11-14T06:40:05;17.65;;;8.98;;
14169;SDS011;63889;50.596;8.690;2022-11-14T06:42:31;18.10;;;9.13;;
14169;SDS011;63889;50.596;8.690;2022-11-14T06:44:57;20.35;;;9.07;;
14169;SDS011;63889;50.596;8.690;2022-11-14T06:47:22;18.63;;;8.93;;
14169;SDS011;63889;50.596;8.690;2022-11-14T06:49:48;17.58;;;8.68;;
14169;SDS011;63889;50.596;8.690;2022-11-14T06:52:13;19.25;;;9.55;;
14169;SDS011;63889;50.596;8.690;2022-11-14T06:54:39;16.70;;;7.65;;
14169;SDS011;63889;50.596;8.690;2022-11-14T06:57:04;17.00;;;7.82;;
14169;SDS011;63889;50.596;8.690;2022-11-14T06:59:30;17.42;;;8.30;;
14169;SDS011;63889;50.596;8.690;2022-11-14T07:01:55;17.85;;;7.97;;
14169;SDS011;63889;50.596;8.690;2022-11-14T07:04:21;16.23;;;7.72;;
14169;SDS011;63889;50.596;8.690;2022-11-14T07:06:46;16.15;;;8.23;;
14169;SDS011;63889;50.596;8.690;2022-11-14T07:09:12;21.10;;;9.82;;
14169;SDS011;63889;50.596;8.690;2022-11-14T07:11:37;17.67;;;7.95;;
14169;SDS011;63889;50.596;8.690;2022-11-14T07:14:03;16.00;;;8.32;;
14169;SDS011;63889;50.596;8.690;2022-11-14T07:16:31;16.35;;;8.70;;
14169;SDS011;63889;50.596;8.690;2022-11-14T07:19:01;18.85;;;8.35;;
14169;SDS011;63889;50.596;8.690;2022-11-14T07:21:29;19.67;;;7.47;;
14169;SDS011;63889;50.596;8.690;2022-11-14T07:23:56;17.10;;;8.38;;
14169;SDS011;63889;50.596;8.690;2022-11-14T07:26:22;16.58;;;8.13;;
14169;SDS011;63889;50.596;8.690;2022-11-14T07:28:48;15.23;;;7.95;;
14169;SDS011;63889;50.596;8.690;2022-11-14T07:31:15;14.32;;;7.88;;
14169;SDS011;63889;50.596;8.690;2022-11-14T07:33:43;20.92;;;7.65;;
14169;SDS011;63889;50.596;8.690;2022-11-14T07:36:09;16.70;;;8.40;;
14169;SDS011;63889;50.596;8.690;2022-11-14T07:38:35;19.40;;;7.93;;
14169;SDS011;63889;50.596;8.690;2022-11-14T07:41:06;18.25;;;7.82;;
14169;SDS011;63889;50.596;8.690;2022-11-14T07:43:33;16.80;;;7.78;;
14169;SDS011;63889;50.596;8.690;2022-11-14T07:45:59;17.90;;;8.07;;
14169;SDS011;63889;50.596;8.690;2022-11-14T07:48:35;19.85;;;9.05;;
14169;SDS011;63889;50.596;8.690;2022-11-14T07:51:02;18.33;;;8.35;;
14169;SDS011;63889;50.596;8.690;2022-11-14T07:53:29;18.67;;;9.65;;
14169;SDS011;63889;50.596;8.690;2022-11-14T07:55:55;21.55;;;9.48;;
14169;SDS011;63889;50.596;8.690;2022-11-14T07:58:21;22.73;;;9.20;;
14169;SDS011;63889;50.596;8.690;2022-11-14T08:00:47;18.13;;;8.82;;
14169;SDS011;63889;50.596;8.690;2022-11-14T08:03:12;21.70;;;9.48;;
14169;SDS011;63889;50.596;8.690;2022-11-14T08:05:38;20.90;;;8.50;;
14169;SDS011;63889;50.596;8.690;2022-11-14T08:08:04;23.42;;;10.35;;
14169;SDS011;63889;50.596;8.690;2022-11-14T08:10:30;22.02;;;9.93;;
14169;SDS011;63889;50.596;8.690;2022-11-14T08:12:56;23.42;;;9.98;;
14169;SDS011;63889;50.596;8.690;2022-11-14T08:15:26;21.77;;;9.15;;
14169;SDS011;63889;50.596;8.690;2022-11-14T08:17:55;21.73;;;9.60;;
14169;SDS011;63889;50.596;8.690;2022-11-14T08:20:22;19.42;;;8.60;;
14169;SDS011;63889;50.596;8.690;2022-11-14T08:22:47;20.30;;;8.80;;
14169;SDS011;63889;50.596;8.690;2022-11-14T08:25:13;16.17;;;8.65;;
14169;SDS011;63889;50.596;8.690;2022-11-14T08:27:38;22.33;;;9.48;;
14169;SDS011;63889;50.596;8.690;2022-11-14T08:30:04;19.85;;;9.80;;
14169;SDS011;63889;50.596;8.690;2022-11-14T08:32:30;20.33;;;9.07;;
14169;SDS011;63889;50.596;8.690;2022-11-14T08:34:56;16.58;;;7.70;;
14169;SDS011;63889;50.596;8.690;2022-11-14T08:37:21;18.55;;;7.70;;
14169;SDS011;63889;50.596;8.690;2022-11-14T08:39:47;18.35;;;8.23;;
14169;SDS011;63889;50.596;8.690;2022-11-14T08:42:12;17.65;;;8.63;;
14169;SDS011;63889;50.596;8.690;2022-11-14T08:44:38;16.63;;;8.57;;
14169;SDS011;63889;50.596;8.690;2022-11-14T08:47:03;16.65;;;8.07;;
14169;SDS011;63889;50.596;8.690;2022-11-14T08:49:29;18.27;;;8.52;;
14169;SDS011;63889;50.596;8.690;2022-11-14T08:51:54;19.08;;;9.55;;
14169;SDS011;63889;50.596;8.690;2022-11-14T08:54:20;16.95;;;8.30;;
14169;SDS011;63889;50.596;8.690;2022-11-14T08:56:45;18.98;;;8.07;;
14169;SDS011;63889;50.596;8.690;2022-11-14T08:59:11;17.73;;;8.68;;
14169;SDS011;63889;50.596;8.690;2022-11-14T09:01:36;19.58;;;8.65;;
14169;SDS011;63889;50.596;8.690;2022-11-14T09:04:02;20.33;;;9.43;;
14169;SDS011;63889;50.596;8.690;2022-11-14T09:06:28;17.20;;;9.43;;
14169;SDS011;63889;50.596;8.690;2022-11-14T09:08:54;19.90;;;9.00;;
14169;SDS011;63889;50.596;8.690;2022-11-14T09:11:20;19.70;;;8.77;;
14169;SDS011;63889;50.596;8.690;2022-11-14T09:13:45;18.83;;;9.48;;
14169;SDS011;63889;50.596;8.690;2022-11-14T09:16:11;20.15;;;8.82;;
14169;SDS011;63889;50.596;8.690;2022-11-14T09:18:37;20.30;;;9.02;;
14169;SDS011;63889;50.596;8.690;2022-11-14T09:21:03;19.05;;;9.77;;
14169;SDS011;63889;50.596;8.690;2022-11-14T09:23:31;20.25;;;9.10;;
14169;SDS011;63889;50.596;8.690;2022-11-14T09:25:56;21.48;;;10.77;;
14169;SDS011;63889;50.596;8.690;2022-11-14T09:28:22;21.15;;;9.80;;
14169;SDS011;63889;50.596;8.690;2022-11-14T09:30:48;27.23;;;9.73;;
14169;SDS011;63889;50.596;8.690;2022-11-14T09:33:14;19.45;;;9.80;;
14169;SDS011;63889;50.596;8.690;2022-11-14T09:35:40;30.77;;;11.68;;
14169;SDS011;63889;50.596;8.690;2022-11-14T09:38:07;20.80;;;9.50;;
14169;SDS011;63889;50.596;8.690;2022-11-14T09:40:50;24.30;;;11.65;;
14169;SDS011;63889;50.596;8.690;2022-11-14T09:46:08;22.70;;;9.38;;
14169;SDS011;63889;50.596;8.690;2022-11-14T09:48:41;25.70;;;10.80;;
14169;SDS011;63889;50.596;8.690;2022-11-14T09:51:14;26.38;;;10.45;;
14169;SDS011;63889;50.596;8.690;2022-11-14T09:53:52;23.90;;;11.07;;
14169;SDS011;63889;50.596;8.690;2022-11-14T09:56:43;25.77;;;11.23;;
14169;SDS011;63889;50.596;8.690;2022-11-14T09:59:09;24.33;;;10.98;;
14169;SDS011;63889;50.596;8.690;2022-11-14T10:01:48;24.65;;;11.20;;
14169;SDS011;63889;50.596;8.690;2022-11-14T10:07:30;20.70;;;10.43;;
14169;SDS011;63889;50.596;8.690;2022-11-14T10:24:17;20.65;;;8.70;;
14169;SDS011;63889;50.596;8.690;2022-11-14T10:27:30;21.52;;;10.10;;
14169;SDS011;63889;50.596;8.690;2022-11-14T10:30:10;15.40;;;7.70;;
14169;SDS011;63889;50.596;8.690;2022-11-14T10:35:39;24.25;;;9.45;;
14169;SDS011;63889;50.596;8.690;2022-11-14T10:38:11;24.30;;;10.20;;
14169;SDS011;63889;50.596;8.690;2022-11-14T10:40:49;23.17;;;9.27;;
14169;SDS011;63889;50.596;8.690;2022-11-14T10:43:25;20.10;;;9.63;;
14169;SDS011;63889;50.596;8.690;2022-11-14T10:46:21;18.08;;;8.48;;
14169;SDS011;63889;50.596;8.690;2022-11-14T10:48:51;17.45;;;8.73;;
14169;SDS011;63889;50.596;8.690;2022-11-14T10:56:34;21.70;;;8.80;;
14169;SDS011;63889;50.596;8.690;2022-11-14T10:59:20;16.52;;;7.90;;
14169;SDS011;63889;50.596;8.690;2022-11-14T11:06:44;17.83;;;8.88;;
14169;SDS011;63889;50.596;8.690;2022-11-14T11:09:12;17.00;;;8.18;;
14169;SDS011;63889;50.596;8.690;2022-11-14T11:11:59;19.33;;;8.98;;
14169;SDS011;63889;50.596;8.690;2022-11-14T11:14:26;18.02;;;8.35;;
14169;SDS011;63889;50.596;8.690;2022-11-14T11:19:40;16.23;;;8.05;;
14169;SDS011;63889;50.596;8.690;2022-11-14T11:22:22;19.25;;;8.77;;
14169;SDS011;63889;50.596;8.690;2022-11-14T11:24:59;13.68;;;7.28;;
14169;SDS011;63889;50.596;8.690;2022-11-14T11:27:25;20.65;;;8.27;;
14169;SDS011;63889;50.596;8.690;2022-11-14T11:30:34;16.33;;;7.80;;
14169;SDS011;63889;50.596;8.690;2022-11-14T11:32:43;18.30;;;8.98;;
14169;SDS011;63889;50.596;8.690;2022-11-14T11:35:10;19.67;;;8.73;;
14169;SDS011;63889;50.596;8.690;2022-11-14T11:37:54;22.27;;;8.82;;
14169;SDS011;63889;50.596;8.690;2022-11-14T11:40:26;17.95;;;8.15;;
14169;SDS011;63889;50.596;8.690;2022-11-14T11:45:42;18.25;;;8.68;;
14169;SDS011;63889;50.596;8.690;2022-11-14T11:48:18;14.37;;;7.23;;
14169;SDS011;63889;50.596;8.690;2022-11-14T11:50:46;18.27;;;8.10;;
14169;SDS011;63889;50.596;8.690;2022-11-14T11:53:27;17.83;;;8.10;;
14169;SDS011;63889;50.596;8.690;2022-11-14T11:56:04;17.02;;;7.90;;
14169;SDS011;63889;50.596;8.690;2022-11-14T11:58:52;19.50;;;8.45;;
14169;SDS011;63889;50.596;8.690;2022-11-14T12:01:24;16.75;;;7.80;;
14169;SDS011;63889;50.596;8.690;2022-11-14T12:03:50;16.65;;;8.40;;
14169;SDS011;63889;50.596;8.690;2022-11-14T12:06:18;17.45;;;7.40;;
14169;SDS011;63889;50.596;8.690;2022-11-14T12:11:35;19.58;;;9.00;;
14169;SDS011;63889;50.596;8.690;2022-11-14T12:16:56;19.23;;;8.10;;
14169;SDS011;63889;50.596;8.690;2022-11-14T12:25:43;16.95;;;7.05;;
14169;SDS011;63889;50.596;8.690;2022-11-14T12:31:12;15.93;;;7.47;;
14169;SDS011;63889;50.596;8.690;2022-11-14T12:33:53;19.35;;;7.30;;
14169;SDS011;63889;50.596;8.690;2022-11-14T12:36:30;14.75;;;6.45;;
14169;SDS011;63889;50.596;8.690;2022-11-14T12:38:58;15.77;;;6.93;;
14169;SDS011;63889;50.596;8.690;2022-11-14T12:41:26;18.88;;;7.53;;
14169;SDS011;63889;50.596;8.690;2022-11-14T12:47:31;16.08;;;6.85;;
14169;SDS011;63889;50.596;8.690;2022-11-14T13:00:31;10.75;;;5.72;;
14169;SDS011;63889;50.596;8.690;2022-11-14T13:05:47;11.65;;;5.80;;
14169;SDS011;63889;50.596;8.690;2022-11-14T13:08:32;13.45;;;6.53;;
14169;SDS011;63889;50.596;8.690;2022-11-14T13:14:19;12.27;;;5.75;;
14169;SDS011;63889;50.596;8.690;2022-11-14T13:33:40;11.25;;;5.75;;
14169;SDS011;63889;50.596;8.690;2022-11-14T13:39:03;10.90;;;4.90;;
14169;SDS011;63889;50.596;8.690;2022-11-14T13:42:15;11.57;;;5.10;;
14169;SDS011;63889;50.596;8.690;2022-11-14T13:50:33;8.25;;;4.63;;
14169;SDS011;63889;50.596;8.690;2022-11-14T13:53:01;8.93;;;4.65;;
14169;SDS011;63889;50.596;8.690;2022-11-14T13:58:25;12.27;;;5.18;;
14169;SDS011;63889;50.596;8.690;2022-11-14T14:01:41;9.35;;;4.45;;
14169;SDS011;63889;50.596;8.690;2022-11-14T14:04:11;8.57;;;4.82;;
14169;SDS011;63889;50.596;8.690;2022-11-14T14:15:26;7.60;;;3.85;;
14169;SDS011;63889;50.596;8.690;2022-11-14T14:20:52;11.20;;;4.28;;
14169;SDS011;63889;50.596;8.690;2022-11-14T14:23:45;13.50;;;6.80;;
14169;SDS011;63889;50.596;8.690;2022-11-14T14:31:36;9.40;;;4.13;;
14169;SDS011;63889;50.596;8.690;2022-11-14T14:34:19;11.00;;;4.28;;
14169;SDS011;63889;50.596;8.690;2022-11-14T14:36:51;8.98;;;4.38;;
14169;SDS011;63889;50.596;8.690;2022-11-14T14:39:20;8.43;;;4.82;;
14169;SDS011;63889;50.596;8.690;2022-11-14T14:41:46;10.65;;;4.50;;
14169;SDS011;63889;50.596;8.690;2022-11-14T14:44:26;9.95;;;4.10;;
14169;SDS011;63889;50.596;8.690;2022-11-14T14:46:56;10.68;;;5.07;;
14169;SDS011;63889;50.596;8.690;2022-11-14T14:49:34;10.70;;;4.60;;
14169;SDS011;63889;50.596;8.690;2022-11-14T14:52:17;10.82;;;5.60;;
14169;SDS011;63889;50.596;8.690;2022-11-14T14:54:55;7.68;;;4.60;;
14169;SDS011;63889;50.596;8.690;2022-11-14T14:57:27;7.80;;;4.90;;
14169;SDS011;63889;50.596;8.690;2022-11-14T14:59:57;8.98;;;4.32;;
14169;SDS011;63889;50.596;8.690;2022-11-14T15:02:41;10.20;;;5.15;;
14169;SDS011;63889;50.596;8.690;2022-11-14T15:05:07;12.50;;;4.93;;
14169;SDS011;63889;50.596;8.690;2022-11-14T15:07:33;8.85;;;4.90;;
14169;SDS011;63889;50.596;8.690;2022-11-14T15:10:02;9.40;;;4.65;;
14169;SDS011;63889;50.596;8.690;2022-11-14T15:12:29;7.22;;;4.22;;
14169;SDS011;63889;50.596;8.690;2022-11-14T15:14:56;10.15;;;4.22;;
14169;SDS011;63889;50.596;8.690;2022-11-14T15:17:23;9.48;;;4.93;;
14169;SDS011;63889;50.596;8.690;2022-11-14T15:19:50;8.45;;;4.90;;
14169;SDS011;63889;50.596;8.690;2022-11-14T15:24:42;10.20;;;5.10;;
14169;SDS011;63889;50.596;8.690;2022-11-14T15:27:12;10.65;;;5.60;;
14169;SDS011;63889;50.596;8.690;2022-11-14T15:29:44;12.18;;;6.57;;
14169;SDS011;63889;50.596;8.690;2022-11-14T15:32:15;8.80;;;4.68;;
14169;SDS011;63889;50.596;8.690;2022-11-14T15:34:49;8.35;;;5.38;;
14169;SDS011;63889;50.596;8.690;2022-11-14T15:37:33;9.00;;;5.03;;
14169;SDS011;63889;50.596;8.690;2022-11-14T15:40:14;53.80;;;20.10;;
14169;SDS011;63889;50.596;8.690;2022-11-14T15:42:41;16.25;;;4.85;;
14169;SDS011;63889;50.596;8.690;2022-11-14T15:45:20;17.98;;;9.02;;
14169;SDS011;63889;50.596;8.690;2022-11-14T15:48:00;8.32;;;4.82;;
14169;SDS011;63889;50.596;8.690;2022-11-14T15:50:29;11.45;;;5.50;;
14169;SDS011;63889;50.596;8.690;2022-11-14T15:53:04;7.97;;;4.25;;
14169;SDS011;63889;50.596;8.690;2022-11-14T15:55:38;15.23;;;6.63;;
14169;SDS011;63889;50.596;8.690;2022-11-14T15:58:07;9.85;;;4.80;;
14169;SDS011;63889;50.596;8.690;2022-11-14T16:00:34;6.65;;;4.30;;
14169;SDS011;63889;50.596;8.690;2022-11-14T16:03:00;8.40;;;4.68;;
14169;SDS011;63889;50.596;8.690;2022-11-14T16:05:27;9.25;;;5.30;;
14169;SDS011;63889;50.596;8.690;2022-11-14T16:07:54;8.77;;;4.70;;
14169;SDS011;63889;50.596;8.690;2022-11-14T16:10:24;9.10;;;4.78;;
14169;SDS011;63889;50.596;8.690;2022-11-14T16:12:51;13.75;;;5.03;;
14169;SDS011;63889;50.596;8.690;2022-11-14T16:15:17;8.95;;;4.40;;
14169;SDS011;63889;50.596;8.690;2022-11-14T16:17:44;8.07;;;4.13;;
14169;SDS011;63889;50.596;8.690;2022-11-14T16:20:19;9.50;;;5.07;;
14169;SDS011;63889;50.596;8.690;2022-11-14T16:22:46;8.38;;;4.50;;
14169;SDS011;63889;50.596;8.690;2022-11-14T16:25:20;4.78;;;3.42;;
14169;SDS011;63889;50.596;8.690;2022-11-14T16:27:53;10.45;;;4.30;;
14169;SDS011;63889;50.596;8.690;2022-11-14T16:30:19;9.73;;;4.40;;
14169;SDS011;63889;50.596;8.690;2022-11-14T16:32:46;8.50;;;4.03;;
14169;SDS011;63889;50.596;8.690;2022-11-14T16:37:40;8.30;;;4.75;;
14169;SDS011;63889;50.596;8.690;2022-11-14T16:40:09;9.40;;;4.95;;
14169;SDS011;63889;50.596;8.690;2022-11-14T16:42:38;8.95;;;4.82;;
14169;SDS011;63889;50.596;8.690;2022-11-14T16:45:04;6.22;;;4.03;;
14169;SDS011;63889;50.596;8.690;2022-11-14T16:47:30;7.65;;;4.30;;
14169;SDS011;63889;50.596;8.690;2022-11-14T16:49:56;8.25;;;4.28;;
14169;SDS011;63889;50.596;8.690;2022-11-14T16:52:22;8.30;;;5.45;;
14169;SDS011;63889;50.596;8.690;2022-11-14T16:54:48;7.22;;;4.32;;